Time;durP1;ratioP1;P1;durP2;ratioP2;P2;SDS_P1;SDS_P2;PMS_P1;PMS_P2;Temp;Humidity;BMP_temperature;BMP_pressure;BME280_temperature;BME280_humidity;BME280_pressure;Samples;Min_cycle;Max_cycle;Signal;HPM_P1;HPM_P2
2023/03/14 00:01:44;;;;;;;;;;;;;;;;;;5007438;28;19910;-81
2023/03/14 00:04:10;;;;;;;;;;;;;;;;;;5003687;28;19914;-81
2023/03/14 00:06:35;;;;;;;;;;;;;;;;;;5002699;28;19921;-81
2023/03/14 00:09:00;;;;;;;;;;;;;;;;;;5005063;28;19910;-80
2023/03/14 00:11:25;;;;;;;;;;;;;;;;;;5007399;28;19933;-81
2023/03/14 00:13:51;;;;;;;;;;;;;;;;;;5005424;28;19909;-81
2023/03/14 00:16:16;;;;;;;;;;;;;;;;;;5005413;28;19909;-80
2023/03/14 00:18:42;;;;;;;;;;;;;;;;;;5006554;28;19914;-81
2023/03/14 00:21:08;;;;;;;;;;;;;;;;;;5004202;28;19937;-80
2023/03/14 00:23:34;;;;;;;;;;;;;;;;;;5002217;28;19924;-80
2023/03/14 00:26:00;;;;;;;;;;;;;;;;;;5003139;28;19909;-81
2023/03/14 00:28:25;;;;;;;;;;;;;;;;;;5003204;28;19914;-79
2023/03/14 00:30:50;;;;;;;;;;;;;;;;;;5004017;28;20387;-80
2023/03/14 00:33:16;;;;;;;;;;;;;;;;;;5003816;28;19916;-81
2023/03/14 00:35:41;;;;;;;;;;;;;;;;;;5001733;28;19969;-81
2023/03/14 00:38:06;;;;;;;;;;;;;;;;;;5004112;28;19909;-81
2023/03/14 00:40:31;;;;;;;;;;;;;;;;;;5002598;28;19917;-81
2023/03/14 00:42:56;;;;;;;;;;;;;;;;;;5000535;28;20007;-81
2023/03/14 00:45:21;;;;;;;;;;;;;;;;;;5002193;28;20303;-81
2023/03/14 00:47:47;;;;;;;;;;;;;;;;;;5002424;28;19909;-81
2023/03/14 00:50:12;;;;;;;;;;;;;;;;;;5001241;28;20298;-81
2023/03/14 00:52:37;;;;;;;;;;;;;;;;;;5001371;28;20009;-81
2023/03/14 00:55:02;;;;;;;;;;;;;;;;;;5000148;28;20005;-80
2023/03/14 00:57:28;;;;;;;;;;;;;;;;;;5000190;28;19916;-80
2023/03/14 00:59:53;;;;;;;;;;;;;;;;;;5001762;28;19909;-81
2023/03/14 01:02:18;;;;;;;;;;;;;;;;;;5001158;28;19998;-80
2023/03/14 01:04:43;;;;;;;;;;;;;;;;;;5000692;28;19917;-81
2023/03/14 01:07:08;;;;;;;;;;;;;;;;;;5001835;28;19916;-81
2023/03/14 01:09:33;;;;;;;;;;;;;;;;;;5002332;28;19914;-80
2023/03/14 01:11:59;;;;;;;;;;;;;;;;;;5002798;28;19910;-80
2023/03/14 01:14:24;;;;;;;;;;;;;;;;;;5002658;28;19951;-80
2023/03/14 01:16:49;;;;;;;;;;;;;;;;;;5003173;28;20000;-81
2023/03/14 01:19:14;;;;;;;;;;;;;;;;;;5002125;28;19909;-81
2023/03/14 01:21:39;;;;;;;;;;;;;;;;;;5002096;28;19913;-80
2023/03/14 01:24:05;;;;;;;;;;;;;;;;;;5002931;28;19918;-81
2023/03/14 01:26:32;;;;;;;;;;;;;;;;;;5002269;28;20258;-81
2023/03/14 01:28:57;;;;;;;;;;;;;;;;;;5002247;28;19910;-81
2023/03/14 01:31:22;;;;;;;;;;;;;;;;;;5001939;28;20009;-81
2023/03/14 01:33:48;;;;;;;;;;;;;;;;;;5002006;28;20012;-81
2023/03/14 01:36:13;;;;;;;;;;;;;;;;;;5002978;28;19909;-80
2023/03/14 01:38:39;;;;;;;;;;;;;;;;;;5001618;28;20000;-81
2023/03/14 01:41:05;;;;;;;;;;;;;;;;;;5001079;28;19910;-81
2023/03/14 01:43:30;;;;;;;;;;;;;;;;;;5002053;28;19920;-81
2023/03/14 01:46:08;;;;;;;;;;;;;;;;;;5002127;28;19992;-80
2023/03/14 01:48:47;;;;;;;;;;;;;;;;;;5001483;28;19924;-81
2023/03/14 01:51:15;;;;;;;;;;;;;;;;;;5001207;28;19917;-81
2023/03/14 01:53:41;;;;;;;;;;;;;;;;;;5002275;28;19941;-81
2023/03/14 01:56:08;;;;;;;;;;;;;;;;;;5001254;28;20284;-80
2023/03/14 01:58:36;;;;;;;;;;;;;;;;;;5002016;28;19963;-82
2023/03/14 02:01:02;;;;;;;;;;;;;;;;;;5000913;28;19932;-81
2023/03/14 02:03:28;;;;;;;;;;;;;;;;;;4999319;28;20385;-80
2023/03/14 02:05:55;;;;;;;;;;;;;;;;;;5000631;28;19996;-80
2023/03/14 02:08:21;;;;;;;;;;;;;;;;;;4999719;28;19909;-80
2023/03/14 02:10:48;;;;;;;;;;;;;;;;;;5001802;28;19964;-80
2023/03/14 02:13:14;;;;;;;;;;;;;;;;;;5000623;28;19914;-81
2023/03/14 02:15:40;;;;;;;;;;;;;;;;;;5001039;28;19913;-80
2023/03/14 02:18:06;;;;;;;;;;;;;;;;;;5001623;28;19919;-81
2023/03/14 02:20:38;;;;;;;;;;;;;;;;;;5001099;28;19910;-80
2023/03/14 02:23:03;;;;;;;;;;;;;;;;;;5000296;28;19918;-80
2023/03/14 02:25:34;;;;;;;;;;;;;;;;;;5000056;28;19917;-81
2023/03/14 02:28:00;;;;;;;;;;;;;;;;;;5000593;28;20292;-80
2023/03/14 02:30:26;;;;;;;;;;;;;;;;;;5000615;28;19916;-80
2023/03/14 02:32:56;;;;;;;;;;;;;;;;;;5000614;28;20435;-81
2023/03/14 02:35:23;;;;;;;;;;;;;;;;;;5000341;28;19921;-81
2023/03/14 02:37:52;;;;;;;;;;;;;;;;;;5000119;28;19910;-80
2023/03/14 02:40:17;;;;;;;;;;;;;;;;;;5000032;28;20290;-81
2023/03/14 02:42:42;;;;;;;;;;;;;;;;;;4998396;28;19921;-81
2023/03/14 02:45:07;;;;;;;;;;;;;;;;;;4999157;28;19921;-80
2023/03/14 02:47:32;;;;;;;;;;;;;;;;;;4999621;28;19917;-80
2023/03/14 02:50:01;;;;;;;;;;;;;;;;;;5000206;28;19916;-81
2023/03/14 02:52:26;;;;;;;;;;;;;;;;;;4999898;28;19917;-81
2023/03/14 02:54:51;;;;;;;;;;;;;;;;;;4999649;28;19909;-81
2023/03/14 02:57:17;;;;;;;;;;;;;;;;;;4999575;28;19960;-81
2023/03/14 02:59:42;;;;;;;;;;;;;;;;;;4999727;28;19909;-82
2023/03/14 03:02:07;;;;;;;;;;;;;;;;;;4999218;28;19945;-80
2023/03/14 03:04:32;;;;;;;;;;;;;;;;;;4999110;28;19921;-80
2023/03/14 03:06:57;;;;;;;;;;;;;;;;;;4999896;28;19948;-81
2023/03/14 03:09:22;;;;;;;;;;;;;;;;;;4998539;28;19920;-79
2023/03/14 03:11:48;;;;;;;;;;;;;;;;;;4998799;28;19910;-80
2023/03/14 03:14:13;;;;;;;;;;;;;;;;;;4997411;28;20349;-80
2023/03/14 03:16:38;;;;;;;;;;;;;;;;;;4998330;28;19917;-82
2023/03/14 03:19:03;;;;;;;;;;;;;;;;;;4997810;28;20322;-80
2023/03/14 03:21:28;;;;;;;;;;;;;;;;;;4998170;28;19948;-80
2023/03/14 03:23:54;;;;;;;;;;;;;;;;;;4998794;28;20335;-80
2023/03/14 03:26:19;;;;;;;;;;;;;;;;;;4998334;28;19909;-80
2023/03/14 03:28:44;;;;;;;;;;;;;;;;;;4998843;28;20349;-81
2023/03/14 03:31:10;;;;;;;;;;;;;;;;;;4998954;28;19910;-81
2023/03/14 03:33:36;;;;;;;;;;;;;;;;;;4997755;28;19914;-81
2023/03/14 03:36:01;;;;;;;;;;;;;;;;;;4997875;28;19910;-81
2023/03/14 03:38:26;;;;;;;;;;;;;;;;;;4999053;28;19950;-80
2023/03/14 03:40:51;;;;;;;;;;;;;;;;;;4996573;28;19910;-80
2023/03/14 03:43:18;;;;;;;;;;;;;;;;;;4999329;28;19910;-80
2023/03/14 03:45:43;;;;;;;;;;;;;;;;;;4999314;28;19929;-81
2023/03/14 03:48:08;;;;;;;;;;;;;;;;;;4997985;28;19994;-80
2023/03/14 03:50:33;;;;;;;;;;;;;;;;;;4999807;28;19910;-81
2023/03/14 03:52:58;;;;;;;;;;;;;;;;;;4998206;28;19910;-79
2023/03/14 03:55:25;;;;;;;;;;;;;;;;;;4999517;28;19937;-81
2023/03/14 03:57:50;;;;;;;;;;;;;;;;;;4999827;28;19910;-80
2023/03/14 04:00:15;;;;;;;;;;;;;;;;;;4999964;28;20024;-80
2023/03/14 04:02:41;;;;;;;;;;;;;;;;;;4998902;28;19917;-80
2023/03/14 04:05:06;;;;;;;;;;;;;;;;;;4998935;28;19918;-80
2023/03/14 04:07:32;;;;;;;;;;;;;;;;;;4999666;28;19916;-80
2023/03/14 04:09:57;;;;;;;;;;;;;;;;;;4999143;28;19916;-81
2023/03/14 04:12:22;;;;;;;;;;;;;;;;;;4998642;28;19914;-80
2023/03/14 04:14:47;;;;;;;;;;;;;;;;;;4999634;28;19945;-79
2023/03/14 04:17:12;;;;;;;;;;;;;;;;;;4999264;28;19913;-78
2023/03/14 04:19:38;;;;;;;;;;;;;;;;;;4996956;28;19917;-80
2023/03/14 04:22:03;;;;;;;;;;;;;;;;;;4998947;28;20364;-78
2023/03/14 04:24:28;;;;;;;;;;;;;;;;;;4999347;28;19968;-80
2023/03/14 04:26:53;;;;;;;;;;;;;;;;;;4998702;28;19948;-79
2023/03/14 04:29:18;;;;;;;;;;;;;;;;;;5001188;28;20364;-79
2023/03/14 04:31:43;;;;;;;;;;;;;;;;;;5002656;28;19916;-80
2023/03/14 04:34:09;;;;;;;;;;;;;;;;;;5002823;28;19909;-81
2023/03/14 04:36:34;;;;;;;;;;;;;;;;;;5002191;28;19961;-80
2023/03/14 04:38:59;;;;;;;;;;;;;;;;;;5001981;28;19909;-80
2023/03/14 04:41:24;;;;;;;;;;;;;;;;;;5001059;28;20274;-80
2023/03/14 04:43:49;;;;;;;;;;;;;;;;;;5002741;28;19913;-80
2023/03/14 04:46:15;;;;;;;;;;;;;;;;;;5002455;28;19979;-80
2023/03/14 04:48:40;;;;;;;;;;;;;;;;;;5003117;28;20365;-80
2023/03/14 04:51:05;;;;;;;;;;;;;;;;;;5003304;28;19993;-81
2023/03/14 04:53:30;;;;;;;;;;;;;;;;;;5002483;28;19909;-80
2023/03/14 04:55:55;;;;;;;;;;;;;;;;;;5002542;28;19956;-82
2023/03/14 04:58:21;;;;;;;;;;;;;;;;;;5003164;28;19910;-80
2023/03/14 05:00:46;;;;;;;;;;;;;;;;;;5001795;28;19910;-81
2023/03/14 05:03:12;;;;;;;;;;;;;;;;;;5002488;28;19932;-80
2023/03/14 05:05:37;;;;;;;;;;;;;;;;;;5001372;28;19910;-81
2023/03/14 05:08:02;;;;;;;;;;;;;;;;;;5002987;28;19985;-80
2023/03/14 05:10:27;;;;;;;;;;;;;;;;;;5002713;28;19910;-78
2023/03/14 05:12:52;;;;;;;;;;;;;;;;;;5002366;28;19913;-80
2023/03/14 05:15:17;;;;;;;;;;;;;;;;;;5002166;28;19917;-79
2023/03/14 05:17:43;;;;;;;;;;;;;;;;;;5002059;28;20000;-79
2023/03/14 05:20:09;;;;;;;;;;;;;;;;;;5002244;28;19910;-79
2023/03/14 05:22:34;;;;;;;;;;;;;;;;;;5002020;28;19963;-81
2023/03/14 05:24:59;;;;;;;;;;;;;;;;;;5001560;28;19984;-79
2023/03/14 05:27:25;;;;;;;;;;;;;;;;;;5001151;28;19916;-81
2023/03/14 05:29:50;;;;;;;;;;;;;;;;;;5001551;28;19917;-78
2023/03/14 05:32:15;;;;;;;;;;;;;;;;;;5000613;28;19909;-78
2023/03/14 05:34:40;;;;;;;;;;;;;;;;;;5002530;28;20424;-81
2023/03/14 05:37:06;;;;;;;;;;;;;;;;;;5000809;28;19913;-79
2023/03/14 05:39:32;;;;;;;;;;;;;;;;;;5002298;28;19909;-81
2023/03/14 05:41:57;;;;;;;;;;;;;;;;;;5001710;28;20044;-79
2023/03/14 05:44:22;;;;;;;;;;;;;;;;;;4999759;28;19917;-81
2023/03/14 05:46:47;;;;;;;;;;;;;;;;;;5000263;28;20408;-81
2023/03/14 05:49:12;;;;;;;;;;;;;;;;;;5001784;28;20373;-81
2023/03/14 05:51:38;;;;;;;;;;;;;;;;;;5001691;28;19933;-82
2023/03/14 05:54:03;;;;;;;;;;;;;;;;;;5001484;28;20440;-78
2023/03/14 05:56:28;;;;;;;;;;;;;;;;;;5000094;28;19910;-81
2023/03/14 05:58:53;;;;;;;;;;;;;;;;;;5000987;28;19914;-78
2023/03/14 06:01:18;;;;;;;;;;;;;;;;;;4999944;28;19917;-77
2023/03/14 06:03:43;;;;;;;;;;;;;;;;;;4999306;28;19952;-79
2023/03/14 06:06:09;;;;;;;;;;;;;;;;;;5001202;28;19924;-79
2023/03/14 06:08:34;;;;;;;;;;;;;;;;;;5000879;28;19909;-80
2023/03/14 06:10:59;;;;;;;;;;;;;;;;;;5000483;28;20293;-79
2023/03/14 06:13:24;;;;;;;;;;;;;;;;;;5000108;28;20368;-79
2023/03/14 06:15:50;;;;;;;;;;;;;;;;;;4998964;28;19910;-78
2023/03/14 06:18:15;;;;;;;;;;;;;;;;;;4999525;28;19909;-79
2023/03/14 06:20:40;;;;;;;;;;;;;;;;;;4999303;28;19969;-78
2023/03/14 06:23:06;;;;;;;;;;;;;;;;;;4998399;28;19914;-78
2023/03/14 06:25:32;;;;;;;;;;;;;;;;;;4998348;28;20004;-79
2023/03/14 06:27:57;;;;;;;;;;;;;;;;;;4999228;28;19910;-79
2023/03/14 06:30:22;;;;;;;;;;;;;;;;;;4999654;28;19977;-80
2023/03/14 06:32:47;;;;;;;;;;;;;;;;;;4998182;28;19909;-77
2023/03/14 06:35:12;;;;;;;;;;;;;;;;;;5000037;28;19920;-78
2023/03/14 06:37:38;;;;;;;;;;;;;;;;;;4999437;28;20000;-78
2023/03/14 06:40:05;;;;;;;;;;;;;;;;;;4998572;28;19949;-78
2023/03/14 06:42:30;;;;;;;;;;;;;;;;;;4998725;28;20004;-78
2023/03/14 06:44:55;;;;;;;;;;;;;;;;;;4998913;28;20024;-78
2023/03/14 06:47:20;;;;;;;;;;;;;;;;;;4997046;28;20005;-79
2023/03/14 06:49:45;;;;;;;;;;;;;;;;;;4998572;28;19910;-80
2023/03/14 06:52:10;;;;;;;;;;;;;;;;;;4998228;28;19917;-79
2023/03/14 06:54:36;;;;;;;;;;;;;;;;;;4998720;28;20332;-80
2023/03/14 06:57:01;;;;;;;;;;;;;;;;;;4999893;28;19948;-80
2023/03/14 06:59:26;;;;;;;;;;;;;;;;;;4998929;28;20317;-80
2023/03/14 07:01:51;;;;;;;;;;;;;;;;;;4997807;28;19948;-79
2023/03/14 07:04:17;;;;;;;;;;;;;;;;;;4996891;28;19921;-79
2023/03/14 07:06:44;;;;;;;;;;;;;;;;;;4997908;28;19910;-80
2023/03/14 07:09:09;;;;;;;;;;;;;;;;;;4996670;28;20388;-80
2023/03/14 07:11:35;;;;;;;;;;;;;;;;;;4997872;28;19909;-80
2023/03/14 07:14:00;;;;;;;;;;;;;;;;;;4996902;28;20011;-78
2023/03/14 07:16:28;;;;;;;;;;;;;;;;;;4998787;28;19913;-79
2023/03/14 07:18:53;;;;;;;;;;;;;;;;;;4998529;28;20304;-80
2023/03/14 07:21:18;;;;;;;;;;;;;;;;;;4996550;28;19945;-80
2023/03/14 07:23:43;;;;;;;;;;;;;;;;;;4998250;28;19964;-77
2023/03/14 07:26:09;;;;;;;;;;;;;;;;;;4998264;28;19930;-79
2023/03/14 07:28:34;;;;;;;;;;;;;;;;;;4998109;28;19916;-80
2023/03/14 07:30:59;;;;;;;;;;;;;;;;;;4996750;28;19973;-79
2023/03/14 07:33:24;;;;;;;;;;;;;;;;;;4997567;28;19910;-79
2023/03/14 07:35:50;;;;;;;;;;;;;;;;;;4997793;28;19964;-79
2023/03/14 07:38:15;;;;;;;;;;;;;;;;;;4998336;28;19981;-75
2023/03/14 07:40:40;;;;;;;;;;;;;;;;;;4998737;28;19953;-77
2023/03/14 07:43:06;;;;;;;;;;;;;;;;;;4998819;28;19913;-75
2023/03/14 07:45:31;;;;;;;;;;;;;;;;;;4997229;28;19921;-75
2023/03/14 07:47:57;;;;;;;;;;;;;;;;;;4997366;28;19909;-76
2023/03/14 07:50:23;;;;;;;;;;;;;;;;;;4997441;28;19917;-77
2023/03/14 07:52:48;;;;;;;;;;;;;;;;;;4995073;28;20369;-77
2023/03/14 07:55:14;;;;;;;;;;;;;;;;;;4995664;28;20090;-75
2023/03/14 07:57:39;;;;;;;;;;;;;;;;;;4996207;28;19909;-76
2023/03/14 08:00:05;;;;;;;;;;;;;;;;;;4995647;28;19946;-77
2023/03/14 08:02:30;;;;;;;;;;;;;;;;;;4995471;28;19956;-74
2023/03/14 08:04:55;;;;;;;;;;;;;;;;;;4996696;28;19914;-75
2023/03/14 08:07:20;;;;;;;;;;;;;;;;;;4999200;28;19921;-74
2023/03/14 08:09:45;;;;;;;;;;;;;;;;;;4998515;28;19941;-75
2023/03/14 08:12:11;;;;;;;;;;;;;;;;;;4999039;28;20395;-75
2023/03/14 08:14:36;;;;;;;;;;;;;;;;;;4998840;28;19910;-75
2023/03/14 08:17:01;;;;;;;;;;;;;;;;;;4998959;28;19917;-76
2023/03/14 08:19:26;;;;;;;;;;;;;;;;;;4999285;28;19910;-74
2023/03/14 08:21:52;;;;;;;;;;;;;;;;;;4998722;28;20006;-76
2023/03/14 08:24:17;;;;;;;;;;;;;;;;;;4998876;28;20294;-74
2023/03/14 08:26:42;;;;;;;;;;;;;;;;;;4996913;28;19909;-75
2023/03/14 08:29:08;;;;;;;;;;;;;;;;;;4996815;28;20389;-74
2023/03/14 08:31:34;;;;;;;;;;;;;;;;;;4996799;28;20312;-75
2023/03/14 08:33:59;;;;;;;;;;;;;;;;;;4997720;28;20288;-76
2023/03/14 08:36:24;;;;;;;;;;;;;;;;;;4997691;28;20013;-74
2023/03/14 08:38:50;;;;;;;;;;;;;;;;;;4997395;28;19909;-75
2023/03/14 08:41:15;;;;;;;;;;;;;;;;;;4997502;28;19910;-75
2023/03/14 08:43:40;;;;;;;;;;;;;;;;;;4997328;28;19914;-74
2023/03/14 08:46:05;;;;;;;;;;;;;;;;;;4997244;28;19910;-74
2023/03/14 08:48:30;;;;;;;;;;;;;;;;;;4997452;28;20001;-74
2023/03/14 08:50:56;;;;;;;;;;;;;;;;;;4997169;28;20408;-74
2023/03/14 08:53:22;;;;;;;;;;;;;;;;;;4997324;28;19910;-74
2023/03/14 08:55:51;;;;;;;;;;;;;;;;;;4996964;28;19952;-74
2023/03/14 08:58:16;;;;;;;;;;;;;;;;;;4997246;28;20055;-75
2023/03/14 09:00:42;;;;;;;;;;;;;;;;;;4996842;28;19957;-74
2023/03/14 09:03:07;;;;;;;;;;;;;;;;;;4998090;28;19921;-75
2023/03/14 09:05:33;;;;;;;;;;;;;;;;;;4997507;28;19914;-75
2023/03/14 09:07:59;;;;;;;;;;;;;;;;;;4997536;28;19913;-75
2023/03/14 09:10:24;;;;;;;;;;;;;;;;;;4997026;28;19918;-74
2023/03/14 09:12:49;;;;;;;;;;;;;;;;;;4997105;28;20338;-75
2023/03/14 09:15:14;;;;;;;;;;;;;;;;;;4996040;28;19956;-75
2023/03/14 09:17:41;;;;;;;;;;;;;;;;;;4997073;28;19955;-74
2023/03/14 09:20:08;;;;;;;;;;;;;;;;;;4996590;28;19910;-75
2023/03/14 09:22:35;;;;;;;;;;;;;;;;;;4996519;28;20048;-76
2023/03/14 09:25:00;;;;;;;;;;;;;;;;;;4995689;28;19914;-75
2023/03/14 09:27:25;;;;;;;;;;;;;;;;;;4996584;28;19917;-75
2023/03/14 09:29:50;;;;;;;;;;;;;;;;;;4996906;28;19909;-75
2023/03/14 09:32:16;;;;;;;;;;;;;;;;;;4996786;28;19916;-77
2023/03/14 09:34:41;;;;;;;;;;;;;;;;;;4995974;28;20004;-74
2023/03/14 09:37:06;;;;;;;;;;;;;;;;;;4995455;28;19917;-74
2023/03/14 09:39:31;;;;;;;;;;;;;;;;;;4995860;28;19945;-74
2023/03/14 09:41:58;;;;;;;;;;;;;;;;;;4995895;28;20396;-75
2023/03/14 09:44:26;;;;;;;;;;;;;;;;;;4996517;28;19975;-74
2023/03/14 09:46:53;;;;;;;;;;;;;;;;;;4996373;28;20280;-73
2023/03/14 09:49:23;;;;;;;;;;;;;;;;;;4995862;28;20340;-73
2023/03/14 09:51:50;;;;;;;;;;;;;;;;;;4996162;28;19941;-74
2023/03/14 09:54:24;;;;;;;;;;;;;;;;;;4996085;28;19910;-74
2023/03/14 09:56:49;;;;;;;;;;;;;;;;;;4995656;28;19910;-75
2023/03/14 09:59:14;;;;;;;;;;;;;;;;;;4995867;28;19964;-75
2023/03/14 10:01:40;;;;;;;;;;;;;;;;;;4995561;28;19996;-75
2023/03/14 10:04:14;;;;;;;;;;;;;;;;;;4995434;28;20368;-73
2023/03/14 10:06:39;;;;;;;;;;;;;;;;;;4995963;28;19910;-74
2023/03/14 10:09:05;;;;;;;;;;;;;;;;;;4994825;28;20364;-74
2023/03/14 10:11:30;;;;;;;;;;;;;;;;;;4998208;28;19909;-75
2023/03/14 10:14:07;;;;;;;;;;;;;;;;;;4995850;28;19916;-75
2023/03/14 10:16:34;;;;;;;;;;;;;;;;;;4996547;28;20295;-74
2023/03/14 10:19:04;;;;;;;;;;;;;;;;;;4994348;28;20377;-75
2023/03/14 10:21:29;;;;;;;;;;;;;;;;;;4995177;28;19914;-74
2023/03/14 10:24:06;;;;;;;;;;;;;;;;;;4995504;28;19918;-74
2023/03/14 10:26:34;;;;;;;;;;;;;;;;;;4995689;28;19910;-75
2023/03/14 10:29:10;;;;;;;;;;;;;;;;;;5010594;28;19945;-74
2023/03/14 10:31:50;;;;;;;;;;;;;;;;;;4995229;28;19913;-74
2023/03/14 10:34:16;;;;;;;;;;;;;;;;;;4995243;28;19910;-75
2023/03/14 10:36:42;;;;;;;;;;;;;;;;;;4993872;28;19909;-74
2023/03/14 10:39:27;;;;;;;;;;;;;;;;;;4995564;28;19917;-74
2023/03/14 10:41:53;;;;;;;;;;;;;;;;;;4995407;28;20373;-73
2023/03/14 10:44:20;;;;;;;;;;;;;;;;;;4995151;28;19914;-74
2023/03/14 10:46:45;;;;;;;;;;;;;;;;;;4994869;28;19909;-74
2023/03/14 10:49:22;;;;;;;;;;;;;;;;;;4994859;28;20001;-74
2023/03/14 10:51:47;;;;;;;;;;;;;;;;;;4995996;28;20440;-74
2023/03/14 10:54:18;;;;;;;;;;;;;;;;;;4995202;28;19960;-74
2023/03/14 10:56:43;;;;;;;;;;;;;;;;;;4995029;28;19914;-74
2023/03/14 10:59:14;;;;;;;;;;;;;;;;;;4994768;28;19909;-74
2023/03/14 11:01:55;;;;;;;;;;;;;;;;;;4994801;28;19910;-74
2023/03/14 11:04:20;;;;;;;;;;;;;;;;;;4994774;28;20385;-77
2023/03/14 11:07:01;;;;;;;;;;;;;;;;;;4994855;28;19909;-75
2023/03/14 11:09:27;;;;;;;;;;;;;;;;;;4994905;28;20000;-74
2023/03/14 11:11:53;;;;;;;;;;;;;;;;;;4993230;28;20405;-75
2023/03/14 11:14:36;;;;;;;;;;;;;;;;;;4994751;28;19909;-75
2023/03/14 11:17:01;;;;;;;;;;;;;;;;;;4978435;28;19910;-75
2023/03/14 11:19:32;;;;;;;;;;;;;;;;;;4995102;28;19909;-74
2023/03/14 11:22:01;;;;;;;;;;;;;;;;;;4994583;28;20040;-75
2023/03/14 11:24:44;;;;;;;;;;;;;;;;;;4995267;28;19920;-74
2023/03/14 11:27:09;;;;;;;;;;;;;;;;;;4995077;28;19949;-74
2023/03/14 11:29:37;;;;;;;;;;;;;;;;;;4995151;28;19983;-75
2023/03/14 11:32:10;;;;;;;;;;;;;;;;;;4993617;28;20092;-75
2023/03/14 11:34:42;;;;;;;;;;;;;;;;;;4995536;28;20277;-75
2023/03/14 11:37:21;;;;;;;;;;;;;;;;;;4995508;28;20349;-75
2023/03/14 11:39:51;;;;;;;;;;;;;;;;;;4994504;28;20011;-75
2023/03/14 11:42:17;;;;;;;;;;;;;;;;;;4995630;28;19910;-75
2023/03/14 11:44:44;;;;;;;;;;;;;;;;;;4996645;28;20033;-77
2023/03/14 11:47:12;;;;;;;;;;;;;;;;;;4995957;28;19909;-78
2023/03/14 11:49:40;;;;;;;;;;;;;;;;;;4993821;28;19953;-75
2023/03/14 11:52:17;;;;;;;;;;;;;;;;;;4994578;28;19917;-74
2023/03/14 11:54:46;;;;;;;;;;;;;;;;;;4995300;28;19917;-75
2023/03/14 11:57:19;;;;;;;;;;;;;;;;;;4993531;28;19956;-75
2023/03/14 11:59:53;;;;;;;;;;;;;;;;;;4994595;28;20397;-75
2023/03/14 12:02:21;;;;;;;;;;;;;;;;;;4993431;28;20365;-74
2023/03/14 12:05:20;;;;;;;;;;;;;;;;;;4993370;28;19980;-74
2023/03/14 12:08:15;;;;;;;;;;;;;;;;;;4993959;28;19917;-75
2023/03/14 12:10:46;;;;;;;;;;;;;;;;;;4995281;28;20380;-75
2023/03/14 12:13:12;;;;;;;;;;;;;;;;;;4993679;28;19909;-75
2023/03/14 12:15:39;;;;;;;;;;;;;;;;;;4994837;28;20456;-75
2023/03/14 12:18:16;;;;;;;;;;;;;;;;;;4992892;28;19945;-75
2023/03/14 12:20:50;;;;;;;;;;;;;;;;;;4994917;28;19932;-81
2023/03/14 12:23:16;;;;;;;;;;;;;;;;;;4995085;28;19948;-75
2023/03/14 12:25:41;;;;;;;;;;;;;;;;;;4996135;28;19913;-75
2023/03/14 12:28:20;;;;;;;;;;;;;;;;;;4994604;28;19910;-74
2023/03/14 12:30:46;;;;;;;;;;;;;;;;;;4994404;28;19913;-75
2023/03/14 12:33:17;;;;;;;;;;;;;;;;;;4995342;28;20387;-75
2023/03/14 12:35:42;;;;;;;;;;;;;;;;;;4993084;28;19957;-75
2023/03/14 12:38:15;;;;;;;;;;;;;;;;;;4995461;28;19909;-75
2023/03/14 12:40:49;;;;;;;;;;;;;;;;;;4993936;28;20059;-76
2023/03/14 12:43:25;;;;;;;;;;;;;;;;;;4994098;28;20371;-75
2023/03/14 12:46:07;;;;;;;;;;;;;;;;;;4994199;28;19936;-76
2023/03/14 12:48:32;;;;;;;;;;;;;;;;;;4993077;28;19910;-76
2023/03/14 12:51:02;;;;;;;;;;;;;;;;;;4994089;28;20048;-77
2023/03/14 12:53:43;;;;;;;;;;;;;;;;;;4998541;28;20008;-78
2023/03/14 12:56:20;;;;;;;;;;;;;;;;;;4998251;28;19910;-74
2023/03/14 12:59:05;;;;;;;;;;;;;;;;;;4997915;28;20508;-74
2023/03/14 13:01:33;;;;;;;;;;;;;;;;;;4997911;28;19916;-75
2023/03/14 13:04:02;;;;;;;;;;;;;;;;;;4998212;28;19914;-75
2023/03/14 13:06:47;;;;;;;;;;;;;;;;;;4998827;28;19910;-74
2023/03/14 13:09:34;;;;;;;;;;;;;;;;;;4998207;28;19910;-76
2023/03/14 13:12:13;;;;;;;;;;;;;;;;;;4997455;28;19910;-75
2023/03/14 13:14:46;;;;;;;;;;;;;;;;;;4997199;28;19921;-76
2023/03/14 13:17:12;;;;;;;;;;;;;;;;;;4997616;28;19997;-74
2023/03/14 13:19:38;;;;;;;;;;;;;;;;;;4997924;28;19944;-74
2023/03/14 13:22:04;;;;;;;;;;;;;;;;;;4997060;28;19939;-75
2023/03/14 13:24:33;;;;;;;;;;;;;;;;;;4996654;28;20019;-76
2023/03/14 13:26:58;;;;;;;;;;;;;;;;;;4997083;28;20040;-75
2023/03/14 13:29:33;;;;;;;;;;;;;;;;;;4998395;28;20353;-77
2023/03/14 13:32:00;;;;;;;;;;;;;;;;;;4999959;28;19917;-76
2023/03/14 13:34:28;;;;;;;;;;;;;;;;;;4999135;28;19909;-75
2023/03/14 13:36:54;;;;;;;;;;;;;;;;;;4999297;28;19929;-76
2023/03/14 13:39:24;;;;;;;;;;;;;;;;;;4996746;28;19910;-74
2023/03/14 13:41:49;;;;;;;;;;;;;;;;;;4998303;28;19917;-74
2023/03/14 13:44:38;;;;;;;;;;;;;;;;;;4997134;28;20288;-74
2023/03/14 13:47:04;;;;;;;;;;;;;;;;;;4988046;28;19941;-73
2023/03/14 13:49:33;;;;;;;;;;;;;;;;;;4994501;28;19916;-73
2023/03/14 13:51:59;;;;;;;;;;;;;;;;;;4995700;28;19916;-74
2023/03/14 13:54:25;;;;;;;;;;;;;;;;;;4995810;28;20004;-74
2023/03/14 13:56:59;;;;;;;;;;;;;;;;;;4997606;28;19998;-74
2023/03/14 13:59:28;;;;;;;;;;;;;;;;;;4997123;28;19921;-74
2023/03/14 14:01:54;;;;;;;;;;;;;;;;;;4996298;28;19910;-74
2023/03/14 14:04:25;;;;;;;;;;;;;;;;;;4996349;28;20414;-74
2023/03/14 14:06:52;;;;;;;;;;;;;;;;;;4996806;28;19959;-73
2023/03/14 14:09:20;;;;;;;;;;;;;;;;;;4994752;28;19910;-74
2023/03/14 14:11:56;;;;;;;;;;;;;;;;;;4996347;28;20346;-74
2023/03/14 14:14:24;;;;;;;;;;;;;;;;;;4996242;28;19910;-74
2023/03/14 14:16:50;;;;;;;;;;;;;;;;;;4994215;28;20363;-74
2023/03/14 14:19:16;;;;;;;;;;;;;;;;;;4995993;28;19909;-74
2023/03/14 14:21:42;;;;;;;;;;;;;;;;;;4995459;28;19992;-75
2023/03/14 14:24:09;;;;;;;;;;;;;;;;;;4994051;28;19914;-75
2023/03/14 14:26:34;;;;;;;;;;;;;;;;;;4995520;28;19913;-75
2023/03/14 14:29:03;;;;;;;;;;;;;;;;;;4995578;28;19916;-75
2023/03/14 14:31:28;;;;;;;;;;;;;;;;;;4995433;28;19917;-75
2023/03/14 14:33:55;;;;;;;;;;;;;;;;;;4994785;28;19918;-74
2023/03/14 14:36:20;;;;;;;;;;;;;;;;;;4995170;28;19909;-75
2023/03/14 14:38:50;;;;;;;;;;;;;;;;;;4993880;28;19933;-74
2023/03/14 14:41:15;;;;;;;;;;;;;;;;;;4995395;28;19913;-75
2023/03/14 14:43:40;;;;;;;;;;;;;;;;;;4995404;28;19916;-74
2023/03/14 14:46:07;;;;;;;;;;;;;;;;;;4994900;28;19921;-74
2023/03/14 14:48:36;;;;;;;;;;;;;;;;;;4993548;28;20342;-75
2023/03/14 14:51:03;;;;;;;;;;;;;;;;;;4993608;28;20348;-74
2023/03/14 14:53:29;;;;;;;;;;;;;;;;;;4993651;28;19965;-74
2023/03/14 14:55:56;;;;;;;;;;;;;;;;;;4994675;28;19910;-75
2023/03/14 14:58:26;;;;;;;;;;;;;;;;;;4995004;28;19913;-74
2023/03/14 15:01:05;;;;;;;;;;;;;;;;;;4994608;28;19916;-75
2023/03/14 15:03:31;;;;;;;;;;;;;;;;;;4993493;28;19909;-76
2023/03/14 15:05:57;;;;;;;;;;;;;;;;;;4994072;28;19987;-75
2023/03/14 15:08:23;;;;;;;;;;;;;;;;;;4996116;28;19913;-75
2023/03/14 15:10:49;;;;;;;;;;;;;;;;;;4994943;28;20373;-74
2023/03/14 15:13:14;;;;;;;;;;;;;;;;;;4994055;28;19963;-75
2023/03/14 15:15:40;;;;;;;;;;;;;;;;;;4996535;28;19910;-74
2023/03/14 15:18:13;;;;;;;;;;;;;;;;;;4994942;28;19910;-74
2023/03/14 15:20:39;;;;;;;;;;;;;;;;;;4993342;28;19910;-75
2023/03/14 15:23:08;;;;;;;;;;;;;;;;;;4994461;28;20044;-74
2023/03/14 15:25:34;;;;;;;;;;;;;;;;;;4994142;28;19933;-74
2023/03/14 15:27:59;;;;;;;;;;;;;;;;;;4995584;28;19910;-74
2023/03/14 15:30:24;;;;;;;;;;;;;;;;;;4994259;28;19910;-75
2023/03/14 15:32:50;;;;;;;;;;;;;;;;;;4993123;28;19910;-75
2023/03/14 15:35:15;;;;;;;;;;;;;;;;;;4994737;28;19956;-74
2023/03/14 15:37:40;;;;;;;;;;;;;;;;;;4994788;28;19909;-75
2023/03/14 15:40:13;;;;;;;;;;;;;;;;;;4993533;28;20368;-74
2023/03/14 15:42:38;;;;;;;;;;;;;;;;;;4993274;28;19917;-74
2023/03/14 15:45:04;;;;;;;;;;;;;;;;;;4994830;28;19921;-74
2023/03/14 15:47:31;;;;;;;;;;;;;;;;;;4995066;28;20392;-74
2023/03/14 15:49:57;;;;;;;;;;;;;;;;;;4994304;28;19939;-75
2023/03/14 15:52:22;;;;;;;;;;;;;;;;;;4994208;28;20456;-75
2023/03/14 15:54:47;;;;;;;;;;;;;;;;;;4994963;28;19910;-75
2023/03/14 15:57:12;;;;;;;;;;;;;;;;;;4994197;28;19909;-73
2023/03/14 15:59:37;;;;;;;;;;;;;;;;;;4994405;28;19980;-75
2023/03/14 16:02:03;;;;;;;;;;;;;;;;;;4993941;28;20353;-74
2023/03/14 16:04:28;;;;;;;;;;;;;;;;;;4976611;28;20008;-74
2023/03/14 16:06:53;;;;;;;;;;;;;;;;;;4996187;28;19948;-74
2023/03/14 16:09:18;;;;;;;;;;;;;;;;;;4994992;28;20416;-74
2023/03/14 16:11:46;;;;;;;;;;;;;;;;;;4994826;28;19914;-74
2023/03/14 16:14:11;;;;;;;;;;;;;;;;;;4994152;28;19910;-74
2023/03/14 16:16:36;;;;;;;;;;;;;;;;;;4995627;28;19913;-74
2023/03/14 16:19:02;;;;;;;;;;;;;;;;;;4993748;28;19909;-75
2023/03/14 16:21:27;;;;;;;;;;;;;;;;;;4995165;28;19972;-75
2023/03/14 16:23:52;;;;;;;;;;;;;;;;;;4994227;28;19920;-75
2023/03/14 16:26:19;;;;;;;;;;;;;;;;;;4997112;28;19910;-74
2023/03/14 16:28:45;;;;;;;;;;;;;;;;;;4999333;28;19914;-75
2023/03/14 16:31:11;;;;;;;;;;;;;;;;;;4999125;28;20321;-75
2023/03/14 16:33:37;;;;;;;;;;;;;;;;;;4998660;28;20381;-75
2023/03/14 16:36:09;;;;;;;;;;;;;;;;;;4998051;28;19910;-75
2023/03/14 16:38:35;;;;;;;;;;;;;;;;;;4996405;28;19913;-76
2023/03/14 16:41:02;;;;;;;;;;;;;;;;;;4996342;28;20361;-74
2023/03/14 16:43:27;;;;;;;;;;;;;;;;;;4997592;28;19910;-74
2023/03/14 16:45:53;;;;;;;;;;;;;;;;;;4997700;28;19955;-73